createdAt,value
2019-02-16T00:00:10.084Z,4.00
2019-02-16T00:02:37.443Z,3.90
2019-02-16T00:05:05.461Z,3.90
2019-02-16T00:07:32.848Z,3.90
2019-02-16T00:10:00.320Z,3.80
2019-02-16T00:12:27.680Z,3.80
2019-02-16T00:14:55.324Z,3.80
2019-02-16T00:17:24.059Z,3.80
2019-02-16T00:19:51.716Z,3.70
2019-02-16T00:22:19.045Z,3.60
2019-02-16T00:24:46.512Z,3.80
2019-02-16T00:27:14.180Z,3.70
2019-02-16T00:29:43.319Z,3.80
2019-02-16T00:32:10.692Z,3.70
2019-02-16T00:34:38.400Z,3.80
2019-02-16T00:37:06.039Z,3.70
2019-02-16T00:39:33.397Z,3.90
2019-02-16T00:42:00.707Z,3.80
2019-02-16T00:44:30.133Z,3.90
2019-02-16T00:46:57.516Z,4.00
2019-02-16T00:49:25.212Z,4.00
2019-02-16T00:51:52.960Z,4.10
2019-02-16T00:54:20.623Z,4.00
2019-02-16T00:56:49.007Z,4.20
2019-02-16T00:59:16.357Z,3.90
2019-02-16T01:01:43.740Z,3.80
2019-02-16T01:04:11.501Z,3.80
2019-02-16T01:06:38.775Z,3.80
2019-02-16T01:09:07.094Z,4.00
2019-02-16T01:11:34.386Z,4.10
2019-02-16T01:14:01.707Z,4.20
2019-02-16T01:16:29.042Z,4.30
2019-02-16T01:18:56.707Z,4.00
2019-02-16T01:21:24.095Z,4.00
2019-02-16T01:23:51.860Z,3.90
2019-02-16T01:26:19.220Z,3.90
2019-02-16T01:28:46.571Z,3.70
2019-02-16T01:31:14.221Z,3.90
2019-02-16T01:33:41.959Z,3.90
2019-02-16T01:36:09.342Z,4.00
2019-02-16T01:38:36.775Z,3.90
2019-02-16T01:41:04.253Z,3.90
2019-02-16T01:43:31.668Z,3.90
2019-02-16T01:45:59.038Z,3.80
2019-02-16T01:48:26.423Z,3.90
2019-02-16T01:50:54.467Z,4.10
2019-02-16T01:53:22.085Z,4.20
2019-02-16T01:55:49.520Z,4.30
2019-02-16T01:58:16.839Z,4.20
2019-02-16T02:00:44.500Z,4.20
2019-02-16T02:03:12.144Z,4.10
2019-02-16T02:05:39.552Z,4.00
2019-02-16T02:08:06.982Z,4.00
2019-02-16T02:10:35.924Z,4.00
2019-02-16T02:13:03.297Z,3.90
2019-02-16T02:15:30.961Z,3.90
2019-02-16T02:17:58.337Z,4.10
2019-02-16T02:20:26.044Z,4.00
2019-02-16T02:22:53.740Z,4.00
2019-02-16T02:25:21.060Z,3.80
2019-02-16T02:27:49.075Z,3.70
2019-02-16T02:30:16.432Z,3.60
2019-02-16T02:32:44.025Z,3.40
2019-02-16T02:35:11.675Z,3.60
2019-02-16T02:37:39.007Z,3.60
2019-02-16T02:40:06.452Z,3.70
2019-02-16T02:42:34.128Z,3.80
2019-02-16T02:45:01.457Z,3.70
2019-02-16T02:47:28.757Z,3.70
2019-02-16T02:49:56.390Z,3.80
2019-02-16T02:52:24.052Z,3.80
2019-02-16T02:54:52.011Z,3.70
2019-02-16T02:57:19.291Z,3.70
2019-02-16T02:59:46.675Z,3.70
2019-02-16T03:02:13.964Z,3.60
2019-02-16T03:04:41.804Z,3.70
2019-02-16T03:07:09.829Z,4.00
2019-02-16T03:09:37.168Z,4.20
2019-02-16T03:17:39.697Z,4.30
2019-02-16T03:20:07.221Z,4.30
2019-02-16T03:23:22.518Z,4.20
2019-02-16T03:25:56.566Z,4.10
2019-02-16T03:28:39.941Z,4.10
2019-02-16T03:31:40.385Z,4.10
2019-02-16T03:34:13.393Z,4.20
2019-02-16T03:37:12.727Z,4.20
2019-02-16T03:39:43.415Z,4.00
2019-02-16T03:42:10.856Z,4.00
2019-02-16T03:44:38.197Z,3.90
2019-02-16T03:47:05.691Z,3.90
2019-02-16T03:49:33.162Z,3.90
2019-02-16T03:52:00.556Z,3.80
2019-02-16T03:54:28.705Z,3.90
2019-02-16T03:56:56.582Z,3.80
2019-02-16T03:59:24.321Z,3.60
2019-02-16T04:01:52.205Z,3.70
2019-02-16T04:04:19.954Z,3.60
2019-02-16T04:06:47.717Z,3.60
2019-02-16T04:09:15.135Z,3.70
2019-02-16T04:11:42.640Z,3.20
2019-02-16T04:14:10.117Z,3.20
2019-02-16T04:16:38.059Z,3.30
2019-02-16T04:19:05.760Z,3.20
2019-02-16T04:21:33.372Z,3.30
2019-02-16T04:24:04.135Z,3.20
2019-02-16T04:26:31.647Z,3.30
2019-02-16T04:29:00.211Z,3.40
2019-02-16T04:31:28.219Z,3.40
2019-02-16T04:33:55.993Z,3.40
2019-02-16T04:36:23.472Z,3.50
2019-02-16T04:38:51.273Z,3.50
2019-02-16T04:41:19.029Z,3.60
2019-02-16T04:43:46.501Z,3.40
2019-02-16T04:46:14.837Z,3.20
2019-02-16T04:48:42.303Z,3.50
2019-02-16T04:51:10.215Z,3.60
2019-02-16T04:53:38.314Z,3.70
2019-02-16T04:56:06.044Z,3.60
2019-02-16T04:58:33.409Z,3.70
2019-02-16T05:01:00.800Z,3.90
2019-02-16T05:03:28.310Z,4.10
2019-02-16T05:05:56.070Z,4.00
2019-02-16T05:08:24.198Z,4.00
2019-02-16T05:10:51.918Z,3.90
2019-02-16T05:13:19.818Z,4.00
2019-02-16T05:15:47.271Z,3.90
2019-02-16T05:18:14.798Z,4.00
2019-02-16T05:20:42.323Z,4.00
2019-02-16T05:23:09.867Z,4.10
2019-02-16T05:25:37.585Z,4.10
2019-02-16T05:28:05.234Z,4.00
2019-02-16T05:30:32.645Z,4.00
2019-02-16T05:33:00.153Z,4.00
2019-02-16T05:35:27.654Z,3.90
2019-02-16T05:41:24.370Z,4.30
2019-02-16T05:43:52.102Z,4.30
2019-02-16T05:46:19.539Z,4.10
2019-02-16T05:48:47.182Z,4.00
2019-02-16T05:51:14.582Z,3.90
2019-02-16T05:53:42.067Z,4.00
2019-02-16T05:56:09.813Z,4.00
2019-02-16T05:58:37.197Z,4.00
2019-02-16T06:01:04.817Z,3.80
2019-02-16T06:03:32.710Z,3.60
2019-02-16T06:06:00.175Z,3.40
2019-02-16T06:08:27.888Z,3.60
2019-02-16T06:10:55.274Z,3.80
2019-02-16T06:13:22.753Z,3.80
2019-02-16T06:15:50.568Z,3.60
2019-02-16T06:18:17.991Z,3.70
2019-02-16T06:20:45.474Z,3.60
2019-02-16T06:23:13.215Z,3.60
2019-02-16T06:25:40.918Z,3.70
2019-02-16T06:28:08.389Z,3.70
2019-02-16T06:30:35.975Z,3.60
2019-02-16T06:33:03.480Z,3.70
2019-02-16T06:35:35.065Z,3.60
2019-02-16T06:38:03.439Z,3.60
2019-02-16T06:40:31.420Z,3.70
2019-02-16T06:42:58.827Z,3.80
2019-02-16T06:45:26.269Z,3.90
2019-02-16T06:47:53.755Z,3.80
2019-02-16T06:50:21.130Z,3.70
2019-02-16T06:52:49.218Z,3.70
2019-02-16T06:55:16.709Z,3.70
2019-02-16T06:57:47.340Z,3.80
2019-02-16T07:00:16.705Z,3.80
2019-02-16T07:02:44.771Z,3.60
2019-02-16T07:05:12.139Z,3.70
2019-02-16T07:07:39.610Z,3.70
2019-02-16T07:10:07.423Z,3.60
2019-02-16T07:12:34.913Z,3.80
2019-02-16T07:15:02.403Z,4.10
2019-02-16T07:17:58.474Z,4.20
2019-02-16T07:20:25.844Z,4.20
2019-02-16T07:22:53.333Z,4.30
2019-02-16T07:25:20.812Z,4.40
2019-02-16T07:27:48.294Z,4.30
2019-02-16T07:30:15.758Z,4.20
2019-02-16T07:32:43.149Z,4.20
2019-02-16T07:35:11.401Z,4.30
2019-02-16T07:37:39.206Z,4.40
2019-02-16T07:40:06.940Z,4.50
2019-02-16T07:42:57.753Z,4.60
2019-02-16T07:45:44.560Z,4.60
2019-02-16T07:48:25.346Z,4.70
2019-02-16T07:51:17.436Z,4.90
2019-02-16T07:53:55.919Z,5.30
2019-02-16T07:56:30.357Z,5.60
2019-02-16T07:59:11.482Z,6.10
2019-02-16T08:01:48.116Z,6.50
2019-02-16T08:04:37.798Z,6.90
2019-02-16T08:07:27.530Z,7.20
2019-02-16T08:10:17.563Z,7.30
2019-02-16T08:13:04.816Z,7.50
2019-02-16T08:15:52.036Z,7.90
2019-02-16T08:18:39.679Z,8.00
2019-02-16T08:21:29.645Z,8.30
2019-02-16T08:24:04.828Z,8.50
2019-02-16T08:27:06.639Z,8.70
2019-02-16T08:29:53.680Z,8.80
2019-02-16T08:32:29.896Z,8.90
2019-02-16T08:35:20.258Z,9.10
2019-02-16T08:38:07.266Z,9.20
2019-02-16T08:40:49.802Z,9.50
2019-02-16T08:43:42.615Z,9.60
2019-02-16T08:46:24.832Z,9.70
2019-02-16T08:49:09.012Z,10.00
2019-02-16T08:51:58.713Z,10.10
2019-02-16T08:54:48.935Z,10.00
2019-02-16T08:57:47.956Z,10.00
2019-02-16T09:00:33.699Z,9.90
2019-02-16T09:03:19.489Z,10.00
2019-02-16T09:06:09.639Z,10.10
2019-02-16T09:08:55.314Z,10.20
2019-02-16T09:11:42.676Z,10.40
2019-02-16T09:14:21.107Z,10.40
2019-02-16T09:17:06.597Z,10.50
2019-02-16T09:19:53.925Z,10.40
2019-02-16T09:22:50.111Z,10.40
2019-02-16T09:25:55.695Z,10.20
2019-02-16T09:28:40.859Z,10.10
2019-02-16T09:31:34.201Z,10.30
2019-02-16T09:34:23.806Z,10.50
2019-02-16T09:37:07.718Z,10.70
2019-02-16T09:40:03.968Z,10.80
2019-02-16T09:42:49.223Z,10.80
2019-02-16T09:45:42.050Z,10.90
2019-02-16T09:48:18.519Z,11.00
2019-02-16T09:51:08.323Z,11.20
2019-02-16T09:53:57.897Z,11.50
2019-02-16T09:56:32.489Z,11.50
2019-02-16T09:59:11.238Z,11.70
2019-02-16T10:01:55.458Z,11.80
2019-02-16T10:04:45.351Z,12.00
2019-02-16T10:07:38.185Z,12.20
2019-02-16T10:10:27.857Z,12.30
2019-02-16T10:13:13.499Z,12.40
2019-02-16T10:16:12.731Z,12.50
2019-02-16T10:18:58.286Z,12.60
2019-02-16T10:21:45.821Z,12.60
2019-02-16T10:24:38.732Z,12.60
2019-02-16T10:27:18.945Z,12.60
2019-02-16T10:29:55.709Z,12.80
2019-02-16T10:32:51.831Z,12.80
2019-02-16T10:35:38.088Z,12.90
2019-02-16T10:38:24.249Z,13.00
2019-02-16T10:41:10.028Z,13.10
2019-02-16T10:43:56.901Z,13.10
2019-02-16T10:46:36.893Z,13.40
2019-02-16T10:49:16.383Z,13.50
2019-02-16T10:51:56.391Z,13.70
2019-02-16T10:54:31.359Z,13.80
2019-02-16T10:57:18.181Z,13.90
2019-02-16T11:00:05.968Z,14.00
2019-02-16T11:02:58.420Z,14.10
2019-02-16T11:05:57.034Z,14.20
2019-02-16T11:08:33.912Z,14.20
2019-02-16T11:11:10.840Z,14.20
2019-02-16T11:14:00.712Z,14.20
2019-02-16T11:17:05.905Z,14.30
2019-02-16T11:20:02.426Z,14.50
2019-02-16T11:22:52.597Z,14.60
2019-02-16T11:25:39.760Z,14.80
2019-02-16T11:28:19.111Z,14.70
2019-02-16T11:31:15.588Z,14.80
2019-02-16T11:34:08.785Z,15.00
2019-02-16T11:36:42.231Z,15.20
2019-02-16T11:39:16.837Z,15.40
2019-02-16T11:41:51.665Z,15.40
2019-02-16T11:44:26.826Z,15.50
2019-02-16T11:47:26.135Z,15.60
2019-02-16T11:50:11.556Z,15.70
2019-02-16T11:52:47.530Z,15.80
2019-02-16T11:55:25.740Z,16.00
2019-02-16T11:58:21.298Z,16.00
2019-02-16T12:01:26.322Z,16.20
2019-02-16T12:04:13.157Z,16.30
2019-02-16T12:07:09.633Z,16.40
2019-02-16T12:09:45.592Z,16.50
2019-02-16T12:12:41.482Z,16.60
2019-02-16T12:15:26.970Z,16.70
2019-02-16T12:18:17.419Z,16.90
2019-02-16T12:21:19.582Z,16.90
2019-02-16T12:24:06.471Z,16.80
2019-02-16T12:26:51.938Z,16.80
2019-02-16T12:29:38.762Z,16.90
2019-02-16T12:32:22.734Z,16.90
2019-02-16T12:35:19.184Z,17.10
2019-02-16T12:38:06.015Z,17.10
2019-02-16T12:40:59.469Z,17.20
2019-02-16T12:43:46.716Z,17.40
2019-02-16T12:46:39.111Z,17.50
2019-02-16T12:49:29.186Z,17.70
2019-02-16T12:52:34.263Z,17.80
2019-02-16T12:55:17.843Z,17.90
2019-02-16T12:57:55.882Z,17.70
2019-02-16T13:00:45.608Z,17.70
2019-02-16T13:03:31.273Z,17.80
2019-02-16T13:06:20.880Z,17.70
2019-02-16T13:08:55.390Z,17.80
2019-02-16T13:11:30.903Z,17.80
2019-02-16T13:14:11.162Z,17.80
2019-02-16T13:17:01.640Z,17.80
2019-02-16T13:19:50.849Z,17.60
2019-02-16T13:22:25.139Z,17.70
2019-02-16T13:25:00.837Z,17.80
2019-02-16T13:28:00.278Z,18.00
2019-02-16T13:30:50.346Z,18.10
2019-02-16T13:33:32.861Z,18.10
2019-02-16T13:36:28.214Z,18.30
2019-02-16T13:39:14.560Z,18.40
2019-02-16T13:41:56.996Z,18.50
2019-02-16T13:44:43.567Z,18.50
2019-02-16T13:47:24.062Z,18.50
2019-02-16T13:50:10.239Z,18.50
2019-02-16T13:53:06.806Z,18.50
2019-02-16T13:55:53.932Z,18.50
2019-02-16T13:58:34.526Z,18.60
2019-02-16T14:01:21.364Z,18.50
2019-02-16T14:04:00.533Z,18.50
2019-02-16T14:06:46.426Z,18.50
2019-02-16T14:09:42.476Z,18.40
2019-02-16T14:12:27.614Z,18.40
2019-02-16T14:15:03.594Z,18.50
2019-02-16T14:17:46.289Z,18.40
2019-02-16T14:20:13.593Z,18.20
2019-02-16T14:22:41.308Z,18.40
2019-02-16T14:25:12.400Z,18.30
2019-02-16T14:27:40.069Z,18.20
2019-02-16T14:30:08.964Z,18.20
2019-02-16T14:32:36.659Z,18.30
2019-02-16T14:35:04.553Z,18.30
2019-02-16T14:37:49.581Z,18.20
2019-02-16T14:40:16.917Z,18.20
2019-02-16T14:42:44.272Z,18.10
2019-02-16T14:45:12.675Z,18.10
2019-02-16T14:47:40.345Z,18.20
2019-02-16T14:50:09.179Z,18.00
2019-02-16T14:52:36.900Z,18.00
2019-02-16T14:55:04.960Z,17.90
2019-02-16T14:57:32.287Z,17.80
2019-02-16T14:59:59.975Z,17.60
2019-02-16T15:02:27.710Z,17.70
2019-02-16T15:04:57.558Z,17.50
2019-02-16T15:07:24.929Z,17.40
2019-02-16T15:09:52.588Z,17.50
2019-02-16T15:12:19.894Z,17.30
2019-02-16T15:14:47.262Z,17.30
2019-02-16T15:17:15.221Z,17.30
2019-02-16T15:19:42.545Z,17.20
2019-02-16T15:22:09.972Z,17.00
2019-02-16T15:24:37.602Z,16.90
2019-02-16T15:27:05.203Z,16.80
2019-02-16T15:29:32.666Z,16.80
2019-02-16T15:32:00.490Z,16.80
2019-02-16T15:34:27.823Z,16.70
2019-02-16T15:36:55.271Z,16.50
2019-02-16T15:39:22.665Z,16.40
2019-02-16T15:41:50.018Z,16.30
2019-02-16T15:44:17.727Z,16.20
2019-02-16T15:46:46.042Z,16.00
2019-02-16T15:49:16.210Z,15.80
2019-02-16T15:51:43.880Z,15.70
2019-02-16T15:54:11.612Z,15.50
2019-02-16T15:56:39.292Z,15.30
2019-02-16T15:59:07.041Z,15.10
2019-02-16T16:01:34.828Z,15.00
2019-02-16T16:04:02.671Z,15.00
2019-02-16T16:06:32.259Z,14.80
2019-02-16T16:09:18.452Z,14.60
2019-02-16T16:12:01.309Z,14.70
2019-02-16T16:14:56.204Z,14.40
2019-02-16T16:17:46.585Z,13.90
2019-02-16T16:20:36.479Z,13.70
2019-02-16T16:23:24.243Z,13.50
2019-02-16T16:26:19.434Z,13.30
2019-02-16T16:28:49.798Z,13.10
2019-02-16T16:31:29.360Z,12.80
2019-02-16T16:34:14.847Z,12.60
2019-02-16T16:36:56.098Z,12.40
2019-02-16T16:39:52.320Z,12.20
2019-02-16T16:42:48.502Z,12.00
2019-02-16T16:45:54.546Z,11.80
2019-02-16T16:48:31.420Z,11.60
2019-02-16T16:51:21.317Z,11.50
2019-02-16T16:54:17.831Z,11.30
2019-02-16T16:57:14.184Z,11.20
2019-02-16T17:00:13.889Z,11.10
2019-02-16T17:03:06.946Z,11.20
2019-02-16T17:05:52.751Z,11.10
2019-02-16T17:08:42.727Z,11.10
2019-02-16T17:11:30.338Z,10.90
2019-02-16T17:14:12.031Z,11.00
2019-02-16T17:17:00.401Z,11.10
2019-02-16T17:19:56.341Z,10.90
2019-02-16T17:22:58.164Z,10.90
2019-02-16T17:25:34.110Z,10.90
2019-02-16T17:28:21.029Z,10.70
2019-02-16T17:31:06.678Z,10.60
2019-02-16T17:33:56.462Z,10.60
2019-02-16T17:36:34.217Z,10.50
2019-02-16T17:39:14.853Z,10.50
2019-02-16T17:42:01.487Z,10.30
2019-02-16T17:45:00.610Z,10.20
2019-02-16T17:47:58.976Z,10.10
2019-02-16T17:50:52.001Z,9.90
2019-02-16T17:53:28.514Z,9.60
2019-02-16T17:56:18.904Z,9.40
2019-02-16T17:59:17.736Z,9.50
2019-02-16T18:02:03.765Z,9.30
2019-02-16T18:04:50.746Z,9.30
2019-02-16T18:07:40.956Z,9.30
2019-02-16T18:10:14.594Z,9.30
2019-02-16T18:13:00.436Z,9.10
2019-02-16T18:15:50.541Z,9.10
2019-02-16T18:18:38.185Z,9.00
2019-02-16T18:21:28.416Z,8.80
2019-02-16T18:24:02.872Z,8.70
2019-02-16T18:26:39.435Z,8.60
2019-02-16T18:29:25.151Z,8.70
2019-02-16T18:32:12.658Z,8.50
2019-02-16T18:34:58.274Z,8.50
2019-02-16T18:37:41.981Z,8.40
2019-02-16T18:40:29.318Z,8.30
2019-02-16T18:43:15.998Z,8.30
2019-02-16T18:45:51.476Z,8.20
2019-02-16T18:48:38.491Z,8.20
2019-02-16T18:51:25.946Z,8.10
2019-02-16T18:54:13.256Z,8.10
2019-02-16T18:56:53.489Z,8.10
2019-02-16T18:59:59.265Z,8.00
2019-02-16T19:02:46.784Z,7.90
2019-02-16T19:05:48.660Z,7.80
2019-02-16T19:08:31.309Z,7.70
2019-02-16T19:11:38.118Z,7.60
2019-02-16T19:14:33.761Z,7.60
2019-02-16T19:17:26.641Z,7.40
2019-02-16T19:20:23.054Z,7.20
2019-02-16T19:23:08.482Z,7.40
2019-02-16T19:25:58.380Z,7.50
2019-02-16T19:28:52.031Z,7.40
2019-02-16T19:31:30.630Z,7.30
2019-02-16T19:34:16.224Z,7.30
2019-02-16T19:37:09.631Z,7.30
2019-02-16T19:39:45.925Z,7.10
2019-02-16T19:42:20.743Z,7.20
2019-02-16T19:45:13.870Z,7.40
2019-02-16T19:48:00.799Z,7.30
2019-02-16T19:50:48.015Z,7.30
2019-02-16T19:53:34.086Z,7.30
2019-02-16T19:56:23.837Z,7.40
2019-02-16T19:59:20.062Z,7.30
2019-02-16T20:02:12.834Z,7.20
2019-02-16T20:05:06.106Z,7.10
2019-02-16T20:07:56.200Z,7.00
2019-02-16T20:10:30.873Z,7.00
2019-02-16T20:13:23.954Z,6.90
2019-02-16T20:16:01.055Z,6.90
2019-02-16T20:18:37.636Z,7.00
2019-02-16T20:21:21.402Z,6.80
2019-02-16T20:24:00.910Z,6.80
2019-02-16T20:26:40.183Z,6.80
2019-02-16T20:29:45.250Z,6.80
2019-02-16T20:32:19.334Z,6.80
2019-02-16T20:34:59.109Z,6.80
2019-02-16T20:37:45.649Z,6.80
2019-02-16T20:40:32.503Z,6.80
2019-02-16T20:43:07.825Z,6.80
2019-02-16T20:45:54.819Z,6.90
2019-02-16T20:48:45.837Z,6.90
2019-02-16T20:51:21.175Z,6.90
2019-02-16T20:54:07.539Z,6.60
2019-02-16T20:56:54.498Z,6.60
2019-02-16T20:59:41.642Z,6.60
2019-02-16T21:02:16.653Z,6.50
2019-02-16T21:04:57.275Z,6.50
2019-02-16T21:07:44.463Z,6.50
2019-02-16T21:10:22.057Z,6.50
2019-02-16T21:13:00.043Z,6.30
2019-02-16T21:15:41.264Z,6.20
2019-02-16T21:18:18.635Z,6.30
2019-02-16T21:21:18.064Z,6.20
2019-02-16T21:24:13.828Z,6.10
2019-02-16T21:27:05.028Z,6.00
2019-02-16T21:30:06.842Z,6.20
2019-02-16T21:32:50.090Z,6.10
2019-02-16T21:35:42.993Z,6.00
2019-02-16T21:38:45.537Z,6.20
2019-02-16T21:41:31.058Z,6.20
2019-02-16T21:44:13.643Z,6.30
2019-02-16T21:47:03.393Z,6.20
2019-02-16T21:50:02.973Z,6.00
2019-02-16T21:53:01.972Z,6.10
2019-02-16T21:55:48.090Z,5.90
2019-02-16T21:58:38.255Z,5.90
2019-02-16T22:01:27.455Z,5.90
2019-02-16T22:04:17.102Z,5.90
2019-02-16T22:06:58.206Z,5.80
2019-02-16T22:09:45.287Z,6.00
2019-02-16T22:12:38.144Z,5.90
2019-02-16T22:15:06.557Z,5.90
2019-02-16T22:17:34.226Z,5.90
2019-02-16T22:20:02.240Z,5.90
2019-02-16T22:22:30.489Z,5.70
2019-02-16T22:24:58.267Z,5.70
2019-02-16T22:27:26.319Z,5.60
2019-02-16T22:29:53.683Z,5.70
2019-02-16T22:32:21.408Z,5.70
2019-02-16T22:34:49.021Z,5.50
2019-02-16T22:37:16.644Z,5.40
2019-02-16T22:39:44.724Z,5.30
2019-02-16T22:42:12.035Z,5.20
2019-02-16T22:44:40.425Z,5.10
2019-02-16T22:47:08.074Z,5.20
2019-02-16T22:49:35.863Z,5.20
2019-02-16T22:52:03.549Z,5.30
2019-02-16T22:54:30.934Z,5.10
2019-02-16T22:56:59.632Z,5.10
2019-02-16T22:59:27.418Z,5.00
2019-02-16T23:01:55.496Z,5.10
2019-02-16T23:04:22.895Z,5.00
2019-02-16T23:06:51.916Z,5.10
2019-02-16T23:09:26.064Z,5.10
2019-02-16T23:11:53.457Z,5.20
2019-02-16T23:14:21.108Z,5.20
2019-02-16T23:16:48.587Z,5.10
2019-02-16T23:19:15.881Z,5.10
2019-02-16T23:21:43.257Z,5.20
2019-02-16T23:24:10.832Z,5.20
2019-02-16T23:26:38.468Z,5.20
2019-02-16T23:29:06.221Z,5.20
2019-02-16T23:31:33.536Z,5.10
2019-02-16T23:34:00.855Z,5.10
2019-02-16T23:36:28.564Z,5.10
2019-02-16T23:38:56.775Z,5.10
2019-02-16T23:41:24.451Z,5.00
2019-02-16T23:43:51.724Z,4.90
2019-02-16T23:46:19.475Z,5.00
2019-02-16T23:48:46.782Z,4.90
2019-02-16T23:51:14.476Z,5.00
2019-02-16T23:53:42.615Z,4.80
2019-02-16T23:56:09.934Z,4.80
2019-02-16T23:58:37.617Z,4.80
